Time;durP1;ratioP1;P1;durP2;ratioP2;P2;SDS_P1;SDS_P2;PMS_P1;PMS_P2;Temp;Humidity;BMP_temperature;BMP_pressure;BME280_temperature;BME280_humidity;BME280_pressure;Samples;Min_cycle;Max_cycle;Signal;HPM_P1;HPM_P2
2024/01/13 00:00:11;;;;;;;4.37;2.60;;;14.30;57.80;;;;;;5054058;28;20529;-78
2024/01/13 00:02:39;;;;;;;5.20;2.50;;;14.30;57.80;;;;;;5078355;22;20492;-76
2024/01/13 00:05:07;;;;;;;8.03;2.83;;;14.30;57.80;;;;;;5042914;28;20490;-75
2024/01/13 00:07:37;;;;;;;4.20;2.70;;;14.30;57.70;;;;;;5038807;28;20443;-75
2024/01/13 00:10:06;;;;;;;5.50;3.90;;;14.30;57.70;;;;;;5045227;28;20439;-76
2024/01/13 00:12:37;;;;;;;3.30;2.60;;;14.30;57.80;;;;;;5036786;28;20467;-77
2024/01/13 00:15:06;;;;;;;6.63;2.70;;;14.20;57.60;;;;;;5037205;28;20495;-78
2024/01/13 00:17:34;;;;;;;5.20;2.70;;;14.30;57.90;;;;;;5035430;28;20566;-74
2024/01/13 00:20:03;;;;;;;2.43;2.23;;;14.20;57.70;;;;;;5033138;28;20526;-77
2024/01/13 00:22:31;;;;;;;2.63;2.40;;;14.30;57.80;;;;;;5039190;28;20541;-77
2024/01/13 00:25:00;;;;;;;3.33;2.67;;;14.30;57.70;;;;;;5045692;28;20505;-78
2024/01/13 00:27:29;;;;;;;15.57;3.27;;;14.20;57.80;;;;;;5034356;28;20543;-78
2024/01/13 00:29:57;;;;;;;3.70;2.83;;;14.20;57.80;;;;;;5034523;28;20479;-79
2024/01/13 00:32:25;;;;;;;4.90;2.93;;;14.20;57.70;;;;;;5033678;28;20533;-78
2024/01/13 00:34:53;;;;;;;3.87;2.73;;;14.20;57.90;;;;;;5033946;28;20539;-77
2024/01/13 00:37:21;;;;;;;4.07;2.50;;;14.20;57.70;;;;;;5034078;28;20498;-78
2024/01/13 00:39:49;;;;;;;2.67;2.40;;;14.20;57.80;;;;;;5033509;28;20475;-78
2024/01/13 00:42:18;;;;;;;4.40;2.70;;;14.20;57.80;;;;;;5032993;28;20448;-78
2024/01/13 00:44:47;;;;;;;3.87;2.80;;;14.20;57.80;;;;;;5033550;28;20439;-78
2024/01/13 00:47:14;;;;;;;4.23;2.23;;;14.20;57.70;;;;;;5033602;28;20439;-78
2024/01/13 00:49:42;;;;;;;5.93;2.97;;;14.20;57.80;;;;;;5033522;28;20443;-78
2024/01/13 00:52:10;;;;;;;3.50;2.77;;;14.30;57.80;;;;;;5032813;28;20487;-77
2024/01/13 00:54:40;;;;;;;3.93;2.77;;;14.20;57.70;;;;;;5033400;28;20447;-78
2024/01/13 00:57:08;;;;;;;3.40;2.27;;;14.20;57.70;;;;;;5032987;28;20439;-79
2024/01/13 00:59:37;;;;;;;2.93;2.50;;;14.20;57.70;;;;;;5033398;28;20458;-79
2024/01/13 01:02:05;;;;;;;3.50;2.50;;;14.20;57.80;;;;;;5032884;28;20530;-78
2024/01/13 01:04:33;;;;;;;3.93;2.50;;;14.20;57.80;;;;;;5032989;28;20455;-78
2024/01/13 01:07:01;;;;;;;2.73;2.40;;;14.20;57.60;;;;;;5032693;28;20502;-78
2024/01/13 01:09:29;;;;;;;5.60;2.70;;;14.20;57.60;;;;;;5033123;28;20447;-77
2024/01/13 01:11:57;;;;;;;2.63;2.30;;;14.20;57.60;;;;;;5032441;28;20459;-77
2024/01/13 01:14:24;;;;;;;2.30;2.10;;;14.20;57.50;;;;;;5032940;28;20518;-78
2024/01/13 01:16:54;;;;;;;3.50;2.60;;;14.20;57.70;;;;;;5032562;28;20918;-78
2024/01/13 01:19:22;;;;;;;5.50;2.80;;;14.20;57.70;;;;;;5031503;28;20475;-79
2024/01/13 01:21:50;;;;;;;11.10;2.90;;;14.20;57.70;;;;;;5032437;28;20455;-77
2024/01/13 01:24:18;;;;;;;2.60;2.10;;;14.20;57.60;;;;;;5032509;28;20475;-78
2024/01/13 01:26:46;;;;;;;2.90;2.43;;;14.20;57.80;;;;;;5032317;28;20436;-76
2024/01/13 01:29:14;;;;;;;3.87;2.30;;;14.20;57.60;;;;;;5032240;28;20461;-76
2024/01/13 01:31:42;;;;;;;4.40;2.80;;;14.20;57.50;;;;;;5031347;28;20515;-75
2024/01/13 01:34:11;;;;;;;5.00;2.40;;;14.20;57.60;;;;;;5031943;28;20475;-77
2024/01/13 01:36:40;;;;;;;4.97;2.70;;;14.20;57.50;;;;;;5032600;28;20499;-75
2024/01/13 01:39:09;;;;;;;3.07;2.67;;;14.20;57.60;;;;;;5032136;28;20502;-79
2024/01/13 01:41:38;;;;;;;2.53;2.03;;;14.20;57.60;;;;;;5032950;28;20470;-75
2024/01/13 01:44:06;;;;;;;3.33;2.33;;;14.20;57.60;;;;;;5032827;28;20451;-75
2024/01/13 01:46:33;;;;;;;4.13;2.23;;;14.20;57.70;;;;;;5032921;28;20517;-75
2024/01/13 01:49:02;;;;;;;2.63;2.40;;;14.20;57.60;;;;;;5033129;28;20471;-76
2024/01/13 01:51:31;;;;;;;6.03;2.50;;;14.20;57.50;;;;;;5032235;28;20463;-75
2024/01/13 01:53:59;;;;;;;2.63;2.17;;;14.20;57.50;;;;;;5033012;28;20457;-75
2024/01/13 01:56:29;;;;;;;2.63;2.30;;;14.20;57.60;;;;;;5032681;28;20473;-76
2024/01/13 01:58:57;;;;;;;2.23;2.07;;;14.10;57.50;;;;;;5033119;28;20450;-74
2024/01/13 02:01:25;;;;;;;4.10;2.20;;;14.20;57.60;;;;;;5032774;28;20523;-75
2024/01/13 02:03:53;;;;;;;3.07;2.13;;;14.20;57.50;;;;;;5032402;28;20506;-75
2024/01/13 02:06:22;;;;;;;3.23;2.50;;;14.10;57.50;;;;;;5032630;28;20521;-75
2024/01/13 02:08:51;;;;;;;3.33;2.10;;;14.10;57.50;;;;;;5032713;28;20470;-75
2024/01/13 02:11:20;;;;;;;4.20;2.70;;;14.20;57.60;;;;;;5031819;28;20439;-75
2024/01/13 02:13:49;;;;;;;4.10;2.40;;;14.20;57.50;;;;;;5032554;28;20479;-77
2024/01/13 02:16:17;;;;;;;3.27;2.23;;;14.20;57.50;;;;;;5032715;28;20511;-77
2024/01/13 02:18:45;;;;;;;2.90;2.33;;;14.10;57.50;;;;;;5031688;28;20463;-77
2024/01/13 02:21:14;;;;;;;2.20;2.07;;;14.10;57.50;;;;;;5031854;28;20448;-77
2024/01/13 02:23:46;;;;;;;4.53;2.47;;;14.10;57.50;;;;;;5032615;28;20447;-77
2024/01/13 02:26:14;;;;;;;3.63;2.30;;;14.10;57.40;;;;;;5032632;28;20436;-78
2024/01/13 02:32:22;;;;;;;4.90;2.20;;;14.10;57.40;;;;;;5025505;28;20517;-77
2024/01/13 02:34:51;;;;;;;2.97;2.57;;;14.10;57.40;;;;;;5047153;28;20438;-77
2024/01/13 02:37:19;;;;;;;2.87;2.53;;;14.10;57.50;;;;;;5048796;28;20558;-76
2024/01/13 02:39:49;;;;;;;4.00;2.80;;;14.10;57.50;;;;;;5046385;28;20489;-76
2024/01/13 02:42:17;;;;;;;2.10;1.80;;;14.10;57.40;;;;;;5050840;28;20463;-77
2024/01/13 02:44:45;;;;;;;1.97;1.87;;;14.10;57.60;;;;;;5051874;28;20446;-76
2024/01/13 02:47:13;;;;;;;2.17;1.97;;;14.10;57.40;;;;;;5050948;28;20793;-75
2024/01/13 02:49:41;;;;;;;6.87;2.30;;;14.10;57.30;;;;;;5051658;28;20535;-79
2024/01/13 02:52:09;;;;;;;6.17;2.63;;;14.10;57.40;;;;;;5054367;28;20462;-75
2024/01/13 02:54:37;;;;;;;6.53;4.20;;;14.10;57.50;;;;;;5054939;28;20537;-75
2024/01/13 02:57:07;;;;;;;6.80;4.93;;;14.10;57.40;;;;;;5055212;28;20470;-76
2024/01/13 02:59:35;;;;;;;7.23;4.90;;;14.10;57.50;;;;;;5055484;28;20446;-75
2024/01/13 03:02:03;;;;;;;10.03;6.27;;;14.10;57.40;;;;;;5054393;28;20497;-75
2024/01/13 03:04:31;;;;;;;9.50;5.30;;;14.10;57.40;;;;;;5055296;28;20529;-75
2024/01/13 03:07:00;;;;;;;7.20;4.70;;;14.10;57.40;;;;;;5055179;28;20460;-75
2024/01/13 03:09:27;;;;;;;10.43;5.70;;;14.10;57.40;;;;;;5055131;28;20430;-76
2024/01/13 03:11:55;;;;;;;8.10;5.50;;;14.10;57.50;;;;;;5054346;28;20837;-76
2024/01/13 03:14:24;;;;;;;9.97;5.87;;;14.10;57.40;;;;;;5054614;28;20438;-76
2024/01/13 03:16:52;;;;;;;13.47;7.10;;;14.00;57.20;;;;;;5054334;28;20489;-76
2024/01/13 03:19:20;;;;;;;11.37;6.03;;;14.00;57.20;;;;;;5053397;28;20469;-75
2024/01/13 03:21:49;;;;;;;11.80;6.53;;;14.00;57.30;;;;;;5054028;28;20470;-76
2024/01/13 03:24:17;;;;;;;8.77;6.43;;;14.00;57.30;;;;;;5054572;28;20451;-76
2024/01/13 03:26:45;;;;;;;11.20;7.10;;;14.00;57.50;;;;;;5054614;28;20470;-76
2024/01/13 03:29:13;;;;;;;9.27;6.00;;;14.10;57.40;;;;;;5054953;28;20448;-75
2024/01/13 03:31:43;;;;;;;10.33;6.30;;;14.10;57.20;;;;;;5054524;28;20466;-76
2024/01/13 03:34:11;;;;;;;13.90;6.87;;;14.00;57.30;;;;;;5055551;28;20476;-77
2024/01/13 03:36:39;;;;;;;12.90;5.80;;;14.00;57.30;;;;;;5055143;28;20516;-76
2024/01/13 03:39:09;;;;;;;13.57;7.43;;;14.10;57.20;;;;;;5055473;28;20477;-75
2024/01/13 03:41:37;;;;;;;9.73;6.27;;;14.00;57.20;;;;;;5055148;28;20462;-75
2024/01/13 03:44:05;;;;;;;9.20;5.97;;;14.00;57.20;;;;;;5055552;28;20446;-74
2024/01/13 03:46:33;;;;;;;14.60;6.47;;;14.00;57.20;;;;;;5035789;28;20439;-76
2024/01/13 03:49:03;;;;;;;10.17;6.13;;;14.00;57.20;;;;;;5035415;28;20455;-75
2024/01/13 03:51:32;;;;;;;10.37;6.40;;;14.10;57.30;;;;;;5046804;28;20481;-76
2024/01/13 03:54:00;;;;;;;10.53;6.17;;;14.00;57.20;;;;;;5055000;28;20453;-76
2024/01/13 03:56:28;;;;;;;9.77;6.23;;;14.00;57.20;;;;;;5054213;28;20446;-76
2024/01/13 03:58:56;;;;;;;11.23;6.37;;;14.00;57.20;;;;;;5055057;28;20466;-76
2024/01/13 04:01:24;;;;;;;8.00;5.90;;;14.00;57.10;;;;;;5047565;28;20573;-75
2024/01/13 04:03:52;;;;;;;9.70;6.17;;;14.00;57.20;;;;;;5033256;28;20462;-75
2024/01/13 04:06:22;;;;;;;8.13;5.93;;;14.00;57.20;;;;;;5041274;28;20448;-76
2024/01/13 04:08:51;;;;;;;8.43;5.50;;;14.00;57.10;;;;;;5034509;28;20494;-76
2024/01/13 04:11:19;;;;;;;9.33;5.90;;;14.00;57.20;;;;;;5033919;28;20462;-76
2024/01/13 04:13:46;;;;;;;7.20;5.10;;;14.00;57.20;;;;;;5032400;28;20527;-77
2024/01/13 04:16:14;;;;;;;7.83;5.20;;;14.00;57.20;;;;;;5032702;28;20459;-76
2024/01/13 04:18:42;;;;;;;8.50;5.40;;;14.00;57.20;;;;;;5033762;28;20510;-76
2024/01/13 04:21:11;;;;;;;10.27;5.50;;;14.00;57.20;;;;;;5033117;28;20448;-78
2024/01/13 04:23:51;;;;;;;6.77;5.53;;;14.00;57.00;;;;;;5034358;28;20416;-77
2024/01/13 04:26:20;;;;;;;8.03;5.37;;;14.00;57.20;;;;;;5034471;28;20436;-76
2024/01/13 04:28:48;;;;;;;10.37;5.77;;;14.00;57.30;;;;;;5033977;28;20534;-76
2024/01/13 04:31:16;;;;;;;14.20;5.87;;;14.00;57.50;;;;;;5034022;28;20543;-76
2024/01/13 04:33:44;;;;;;;7.83;5.50;;;14.00;57.10;;;;;;5034132;28;20506;-76
2024/01/13 04:36:13;;;;;;;8.23;5.57;;;14.00;57.20;;;;;;5033913;28;20452;-76
2024/01/13 04:38:41;;;;;;;7.30;4.97;;;14.00;57.30;;;;;;5034335;28;20478;-76
2024/01/13 04:41:10;;;;;;;8.17;4.53;;;14.00;57.00;;;;;;5033957;28;20455;-76
2024/01/13 04:43:39;;;;;;;7.40;5.17;;;14.00;57.20;;;;;;5033187;28;20863;-76
2024/01/13 04:46:07;;;;;;;6.70;4.90;;;14.00;57.20;;;;;;5033091;28;20493;-76
2024/01/13 04:48:35;;;;;;;9.63;5.60;;;14.00;57.20;;;;;;5033615;28;20479;-76
2024/01/13 04:51:04;;;;;;;7.80;5.00;;;14.00;57.10;;;;;;5033152;28;20455;-75
2024/01/13 04:53:32;;;;;;;8.33;5.10;;;14.00;57.20;;;;;;5033252;28;20439;-76
2024/01/13 04:56:01;;;;;;;7.33;5.27;;;14.00;57.20;;;;;;5033186;28;20486;-76
2024/01/13 04:58:30;;;;;;;6.60;4.67;;;14.00;57.10;;;;;;5033177;28;20553;-76
2024/01/13 05:00:58;;;;;;;7.50;5.13;;;14.00;57.00;;;;;;5032528;28;20436;-76
2024/01/13 05:03:26;;;;;;;6.40;4.40;;;14.00;57.20;;;;;;5033147;28;20469;-76
2024/01/13 05:05:54;;;;;;;6.33;4.70;;;14.00;57.20;;;;;;5033073;28;20439;-75
2024/01/13 05:08:23;;;;;;;7.27;4.93;;;14.00;57.10;;;;;;5033265;28;20485;-78
2024/01/13 05:10:51;;;;;;;5.40;4.60;;;14.00;57.20;;;;;;5032488;28;20450;-75
2024/01/13 05:13:19;;;;;;;6.90;4.80;;;14.00;57.20;;;;;;5031984;28;20467;-75
2024/01/13 05:15:48;;;;;;;4.80;4.23;;;14.00;57.10;;;;;;5032244;28;20498;-75
2024/01/13 05:18:16;;;;;;;7.40;4.50;;;14.00;57.10;;;;;;5032668;28;20549;-76
2024/01/13 05:20:44;;;;;;;6.57;4.47;;;14.00;57.00;;;;;;5032752;28;20490;-76
2024/01/13 05:23:26;;;;;;;5.57;4.10;;;14.00;57.00;;;;;;5108734;27;1185812;-77
2024/01/13 05:25:54;;;;;;;5.67;4.23;;;14.00;57.20;;;;;;5151353;27;20258;-76
2024/01/13 05:28:22;;;;;;;5.23;4.13;;;14.00;57.10;;;;;;5151376;27;20450;-77
2024/01/13 05:30:50;;;;;;;4.83;3.90;;;14.00;57.10;;;;;;5151180;27;20537;-77
2024/01/13 05:33:18;;;;;;;6.80;4.60;;;14.00;57.10;;;;;;5151092;27;20461;-77
2024/01/13 05:35:45;;;;;;;5.10;4.00;;;14.00;57.00;;;;;;5150668;27;20434;-77
2024/01/13 05:38:13;;;;;;;5.03;3.93;;;14.00;56.90;;;;;;5150473;27;20438;-77
2024/01/13 05:40:44;;;;;;;4.73;3.77;;;14.00;57.10;;;;;;5149808;27;20473;-77
2024/01/13 05:43:12;;;;;;;4.90;3.50;;;14.00;56.90;;;;;;5150894;27;20476;-77
2024/01/13 05:45:40;;;;;;;3.77;3.40;;;14.00;57.20;;;;;;5150932;27;20481;-76
2024/01/13 05:48:09;;;;;;;4.03;3.43;;;14.00;56.90;;;;;;5150829;27;20446;-76
2024/01/13 05:50:37;;;;;;;3.67;3.33;;;14.00;57.10;;;;;;5150353;27;20438;-76
2024/01/13 05:53:06;;;;;;;3.70;3.37;;;14.00;57.00;;;;;;5151169;27;20458;-76
2024/01/13 05:55:34;;;;;;;3.73;3.40;;;14.00;57.10;;;;;;5151372;27;20442;-77
2024/01/13 05:58:05;;;;;;;5.57;3.53;;;14.00;57.10;;;;;;5150869;27;20446;-77
2024/01/13 06:00:33;;;;;;;5.60;4.03;;;14.00;57.00;;;;;;5150670;27;20442;-76
2024/01/13 06:03:02;;;;;;;4.33;3.53;;;14.00;57.10;;;;;;5151052;27;20477;-77
2024/01/13 06:05:32;;;;;;;4.17;3.53;;;14.00;56.90;;;;;;5151048;27;20507;-75
2024/01/13 06:08:00;;;;;;;4.93;3.70;;;14.00;57.00;;;;;;5150269;27;20473;-76
2024/01/13 06:10:28;;;;;;;4.17;3.30;;;14.00;57.10;;;;;;5150432;27;20525;-76
2024/01/13 06:12:56;;;;;;;3.73;3.23;;;14.00;57.00;;;;;;5149820;27;20458;-76
2024/01/13 06:15:26;;;;;;;3.43;2.80;;;14.00;57.00;;;;;;5149521;27;20445;-76
2024/01/13 06:17:56;;;;;;;3.13;2.83;;;14.00;57.10;;;;;;5150047;27;20434;-77
2024/01/13 06:20:24;;;;;;;2.90;2.70;;;14.00;57.10;;;;;;5151831;27;20442;-76
2024/01/13 06:22:52;;;;;;;4.40;3.10;;;14.00;57.00;;;;;;5148856;27;20494;-76
2024/01/13 06:25:20;;;;;;;6.90;3.50;;;14.00;56.90;;;;;;5150149;27;20477;-77
2024/01/13 06:27:48;;;;;;;4.10;3.30;;;14.00;57.10;;;;;;5150044;27;20473;-77
2024/01/13 06:30:17;;;;;;;3.33;3.00;;;14.00;57.00;;;;;;5140777;27;20463;-77
2024/01/13 06:32:46;;;;;;;3.10;2.80;;;14.00;56.90;;;;;;5147313;27;20465;-77
2024/01/13 06:35:14;;;;;;;3.47;2.90;;;14.00;57.10;;;;;;5136167;27;20431;-77
2024/01/13 06:37:42;;;;;;;4.00;3.20;;;14.00;56.90;;;;;;5135554;27;20439;-77
2024/01/13 06:40:12;;;;;;;3.40;2.97;;;14.00;57.60;;;;;;5136449;27;21029;-78
2024/01/13 06:42:39;;;;;;;2.70;2.50;;;14.00;57.00;;;;;;5135760;27;20565;-78
2024/01/13 06:45:08;;;;;;;3.20;2.70;;;14.00;56.90;;;;;;5136178;27;20442;-78
2024/01/13 06:47:36;;;;;;;5.30;2.60;;;14.00;57.00;;;;;;5136011;27;20465;-77
2024/01/13 06:50:06;;;;;;;3.57;2.73;;;14.00;57.00;;;;;;5135561;27;20439;-78
2024/01/13 06:52:35;;;;;;;2.83;2.60;;;14.00;57.00;;;;;;5135345;27;20508;-78
2024/01/13 06:55:03;;;;;;;2.63;2.43;;;14.00;57.00;;;;;;5135840;27;20481;-78
2024/01/13 06:57:31;;;;;;;4.10;2.73;;;14.00;57.00;;;;;;5136114;27;20443;-78
2024/01/13 06:59:59;;;;;;;2.60;2.40;;;14.00;56.90;;;;;;5135569;27;20432;-78
2024/01/13 07:02:27;;;;;;;2.40;2.20;;;14.00;57.60;;;;;;5135089;27;20497;-78
2024/01/13 07:05:00;;;;;;;2.53;2.33;;;14.00;57.10;;;;;;5135409;27;20437;-77
2024/01/13 07:07:31;;;;;;;3.60;2.77;;;14.00;57.00;;;;;;5135126;27;20427;-77
2024/01/13 07:09:59;;;;;;;2.40;2.30;;;14.00;57.00;;;;;;5135699;27;20450;-77
2024/01/13 07:12:27;;;;;;;2.87;2.57;;;14.00;57.10;;;;;;5134855;27;20450;-77
2024/01/13 07:14:55;;;;;;;2.73;1.97;;;14.00;56.90;;;;;;5135550;27;20446;-78
2024/01/13 07:17:22;;;;;;;2.40;2.20;;;14.00;57.00;;;;;;5134288;27;20445;-78
2024/01/13 07:19:50;;;;;;;4.47;2.33;;;14.10;57.00;;;;;;5135231;27;20990;-77
2024/01/13 07:22:19;;;;;;;3.00;2.20;;;14.10;57.00;;;;;;5134912;27;20458;-78
2024/01/13 07:24:49;;;;;;;2.10;2.00;;;14.00;56.80;;;;;;5135465;27;20470;-78
2024/01/13 07:27:17;;;;;;;3.33;2.40;;;14.10;56.90;;;;;;5135048;27;20787;-78
2024/01/13 07:29:44;;;;;;;4.27;2.50;;;14.00;57.00;;;;;;5135767;27;20435;-78
2024/01/13 07:32:24;;;;;;;2.60;2.20;;;14.00;56.70;;;;;;5135632;27;20451;-77
2024/01/13 07:34:52;;;;;;;1.93;1.83;;;14.10;57.00;;;;;;5136164;27;20427;-76
2024/01/13 07:37:20;;;;;;;2.50;2.30;;;14.10;57.00;;;;;;5135980;27;20427;-78
2024/01/13 07:39:50;;;;;;;2.40;2.10;;;14.10;56.90;;;;;;5136045;27;20455;-78
2024/01/13 07:42:18;;;;;;;2.20;2.00;;;14.10;56.90;;;;;;5134642;27;20451;-77
2024/01/13 07:44:46;;;;;;;2.80;2.00;;;14.20;57.00;;;;;;5140695;27;20430;-77
2024/01/13 07:47:14;;;;;;;2.27;2.07;;;14.10;56.90;;;;;;5141684;27;20464;-77
2024/01/13 07:49:42;;;;;;;2.17;2.07;;;14.10;56.80;;;;;;5140395;27;20953;-77
2024/01/13 07:52:10;;;;;;;2.20;1.77;;;14.10;56.90;;;;;;5140014;27;20457;-77
2024/01/13 07:54:38;;;;;;;2.00;1.90;;;14.10;56.90;;;;;;5139375;27;20427;-78
2024/01/13 07:57:08;;;;;;;2.30;1.60;;;14.10;56.70;;;;;;5138719;27;20462;-76
2024/01/13 07:59:36;;;;;;;1.83;1.73;;;14.10;56.80;;;;;;5137805;27;20465;-76
2024/01/13 08:02:04;;;;;;;2.13;1.93;;;14.10;56.80;;;;;;5136538;27;20545;-76
2024/01/13 08:04:32;;;;;;;2.03;1.93;;;14.20;56.90;;;;;;5136858;27;20459;-76
2024/01/13 08:07:00;;;;;;;2.63;2.00;;;14.20;56.80;;;;;;5136734;27;20431;-77
2024/01/13 08:09:28;;;;;;;2.40;1.63;;;14.10;56.80;;;;;;5136116;27;20439;-78
2024/01/13 08:11:56;;;;;;;2.00;1.80;;;14.20;56.90;;;;;;5132816;27;20447;-76
2024/01/13 08:14:25;;;;;;;1.87;1.67;;;14.20;56.70;;;;;;5135787;27;20434;-76
2024/01/13 08:16:53;;;;;;;1.77;1.67;;;14.20;56.70;;;;;;5134688;27;20990;-76
2024/01/13 08:19:22;;;;;;;2.33;1.73;;;14.20;57.00;;;;;;5135610;27;20458;-76
2024/01/13 08:21:50;;;;;;;2.13;1.90;;;14.20;56.70;;;;;;5135239;27;20473;-76
2024/01/13 08:24:19;;;;;;;1.73;1.63;;;14.20;56.90;;;;;;5126172;27;20553;-76
2024/01/13 08:26:46;;;;;;;1.83;1.73;;;14.20;56.80;;;;;;5135679;27;20435;-76
2024/01/13 08:29:14;;;;;;;1.93;1.83;;;14.20;56.90;;;;;;5135502;27;20446;-76
2024/01/13 08:31:44;;;;;;;1.80;1.70;;;14.20;56.90;;;;;;5134621;27;20489;-77
2024/01/13 08:34:13;;;;;;;2.10;2.00;;;14.20;56.90;;;;;;5134291;27;20455;-76
2024/01/13 08:36:41;;;;;;;1.67;1.57;;;14.20;56.80;;;;;;5134281;27;20469;-75
2024/01/13 08:39:09;;;;;;;1.70;1.60;;;14.20;56.70;;;;;;5134329;27;20435;-75
2024/01/13 08:41:38;;;;;;;1.80;1.70;;;14.20;56.90;;;;;;5116537;27;20451;-77
2024/01/13 08:44:07;;;;;;;1.90;1.70;;;14.20;56.60;;;;;;5134598;27;20458;-77
2024/01/13 08:46:35;;;;;;;1.50;1.40;;;14.20;56.90;;;;;;5134385;27;20447;-78
2024/01/13 08:49:05;;;;;;;2.30;1.87;;;14.30;56.80;;;;;;5134054;27;20439;-77
2024/01/13 08:51:33;;;;;;;2.10;2.00;;;14.30;56.70;;;;;;5131750;27;20443;-76
2024/01/13 08:54:03;;;;;;;1.43;1.43;;;14.30;56.80;;;;;;5129952;27;20509;-75
2024/01/13 08:56:34;;;;;;;2.80;1.73;;;14.30;56.60;;;;;;5132761;27;20463;-74
2024/01/13 08:59:04;;;;;;;1.60;1.47;;;14.30;56.70;;;;;;5133896;27;20423;-76
2024/01/13 09:01:31;;;;;;;1.50;1.40;;;14.30;56.80;;;;;;5133151;27;20969;-77
2024/01/13 09:04:08;;;;;;;1.43;1.33;;;14.30;56.60;;;;;;5116800;27;20462;-76
2024/01/13 09:06:40;;;;;;;1.70;1.60;;;14.30;56.70;;;;;;5133915;27;20478;-77
2024/01/13 09:09:10;;;;;;;1.70;1.60;;;14.30;56.60;;;;;;5135390;27;20443;-77
2024/01/13 09:11:41;;;;;;;1.30;1.20;;;14.30;56.50;;;;;;5134077;27;20468;-77
2024/01/13 09:14:12;;;;;;;1.50;1.40;;;14.30;56.70;;;;;;5125911;27;20439;-77
2024/01/13 09:16:42;;;;;;;1.63;1.53;;;14.30;56.70;;;;;;5132579;27;20519;-77
2024/01/13 09:19:11;;;;;;;1.30;1.20;;;14.40;56.70;;;;;;5132382;27;20784;-78
2024/01/13 09:21:41;;;;;;;1.33;1.23;;;14.40;56.70;;;;;;5141534;27;20481;-78
2024/01/13 09:24:13;;;;;;;1.70;1.60;;;14.30;56.60;;;;;;5133322;28;20462;-78
2024/01/13 09:26:42;;;;;;;1.40;1.30;;;14.30;56.40;;;;;;5133524;28;20450;-77
2024/01/13 09:29:14;;;;;;;1.57;1.47;;;14.30;56.70;;;;;;5138966;27;20513;-77
2024/01/13 09:31:42;;;;;;;1.50;1.40;;;14.30;56.70;;;;;;5141193;27;20467;-77
2024/01/13 09:34:12;;;;;;;1.40;1.30;;;14.30;56.60;;;;;;5135088;27;20435;-77
2024/01/13 09:36:42;;;;;;;1.57;1.27;;;14.30;56.80;;;;;;5139243;27;20547;-77
2024/01/13 09:39:17;;;;;;;1.30;1.20;;;14.30;56.60;;;;;;5132933;28;20533;-77
2024/01/13 09:41:47;;;;;;;1.50;1.40;;;14.30;56.70;;;;;;5132108;28;20511;-78
2024/01/13 09:44:20;;;;;;;1.37;1.27;;;14.30;56.80;;;;;;5132469;28;20458;-78
2024/01/13 09:46:48;;;;;;;2.40;1.37;;;14.30;56.60;;;;;;5133294;28;20439;-77
2024/01/13 09:49:18;;;;;;;1.53;1.43;;;14.30;56.80;;;;;;5133686;28;20492;-78
2024/01/13 09:51:47;;;;;;;1.97;1.40;;;14.30;56.70;;;;;;5133580;28;20512;-77
2024/01/13 09:54:19;;;;;;;1.57;1.40;;;14.30;56.70;;;;;;5133293;28;20439;-77
2024/01/13 09:56:47;;;;;;;1.70;1.57;;;14.30;56.60;;;;;;5130005;28;20439;-77
2024/01/13 09:59:16;;;;;;;1.60;1.50;;;14.30;56.80;;;;;;5132732;28;20507;-77
2024/01/13 10:01:44;;;;;;;1.40;1.30;;;14.30;56.60;;;;;;5132434;28;20554;-78
2024/01/13 10:04:13;;;;;;;1.70;1.60;;;14.30;56.80;;;;;;5132829;28;20526;-78
2024/01/13 10:06:42;;;;;;;1.40;1.40;;;14.40;56.60;;;;;;5132768;28;20439;-78
2024/01/13 10:09:11;;;;;;;1.80;1.70;;;14.40;56.70;;;;;;5134621;27;20439;-78
2024/01/13 10:11:59;;;;;;;1.50;1.40;;;14.30;56.80;;;;;;5137023;27;20462;-78
2024/01/13 10:14:27;;;;;;;1.43;1.27;;;14.40;56.60;;;;;;5136857;27;20525;-78
2024/01/13 10:16:56;;;;;;;1.60;1.50;;;14.40;56.60;;;;;;5135240;27;20427;-77
2024/01/13 10:19:25;;;;;;;2.90;1.40;;;14.40;56.80;;;;;;5135845;27;20427;-77
2024/01/13 10:21:58;;;;;;;1.87;1.77;;;14.40;56.60;;;;;;5135532;27;20546;-77
2024/01/13 10:24:26;;;;;;;1.70;1.60;;;14.40;56.60;;;;;;5136160;27;20458;-78
2024/01/13 10:26:54;;;;;;;2.90;2.07;;;14.40;56.70;;;;;;5136222;27;20431;-78
2024/01/13 10:29:22;;;;;;;1.97;1.87;;;14.40;56.60;;;;;;5135880;27;20427;-77
2024/01/13 10:31:50;;;;;;;3.50;2.50;;;14.40;56.60;;;;;;5135648;27;20822;-76
2024/01/13 10:34:19;;;;;;;2.87;2.67;;;14.40;56.60;;;;;;5136086;27;20450;-78
2024/01/13 10:36:48;;;;;;;2.40;2.23;;;14.40;56.60;;;;;;5135580;27;20446;-76
2024/01/13 10:39:18;;;;;;;2.70;2.50;;;14.40;56.50;;;;;;5136106;27;20464;-78
2024/01/13 10:41:50;;;;;;;2.63;2.43;;;14.40;56.50;;;;;;5135476;27;21003;-76
2024/01/13 10:44:18;;;;;;;2.80;2.60;;;14.40;56.50;;;;;;5135635;27;20463;-76
2024/01/13 10:46:49;;;;;;;3.10;2.80;;;14.40;56.20;;;;;;5135371;27;20435;-77
2024/01/13 10:49:21;;;;;;;3.00;2.60;;;14.40;56.30;;;;;;5135812;27;20416;-76
2024/01/13 10:51:53;;;;;;;3.50;3.10;;;14.40;56.40;;;;;;5130315;27;20846;-74
2024/01/13 10:54:25;;;;;;;3.33;3.00;;;14.50;56.30;;;;;;5128584;27;20503;-75
2024/01/13 10:56:53;;;;;;;3.90;3.50;;;14.40;56.20;;;;;;5133228;27;20423;-77
2024/01/13 10:59:22;;;;;;;3.60;3.30;;;14.40;56.30;;;;;;5136130;27;20438;-79
2024/01/13 11:01:51;;;;;;;2.90;2.73;;;14.50;56.60;;;;;;5134997;27;20482;-78
2024/01/13 11:04:18;;;;;;;4.90;3.43;;;14.50;56.40;;;;;;5126689;27;20446;-76
2024/01/13 11:06:47;;;;;;;4.57;3.37;;;14.50;56.50;;;;;;5125660;27;20441;-76
2024/01/13 11:09:15;;;;;;;4.30;3.27;;;14.50;56.50;;;;;;5134975;27;20975;-77
2024/01/13 11:11:48;;;;;;;3.40;3.10;;;14.60;56.50;;;;;;5134930;27;20463;-76
2024/01/13 11:14:21;;;;;;;3.60;3.30;;;14.60;56.40;;;;;;5135117;27;20442;-77
2024/01/13 11:16:50;;;;;;;5.33;3.70;;;14.50;56.50;;;;;;5135277;27;20443;-77
2024/01/13 11:19:17;;;;;;;3.60;3.30;;;14.50;56.40;;;;;;5135005;27;20526;-76
2024/01/13 11:21:48;;;;;;;3.93;3.37;;;14.60;56.50;;;;;;5134655;27;20515;-77
2024/01/13 11:24:17;;;;;;;4.30;3.33;;;14.60;56.70;;;;;;5136115;27;20439;-76
2024/01/13 11:26:51;;;;;;;4.30;3.50;;;14.60;56.50;;;;;;5136307;27;20453;-77
2024/01/13 11:29:20;;;;;;;3.20;2.90;;;14.60;56.50;;;;;;5135594;27;20443;-80
2024/01/13 11:31:54;;;;;;;3.73;3.47;;;14.60;56.70;;;;;;5134923;27;20463;-76
2024/01/13 11:34:23;;;;;;;4.97;4.20;;;14.60;56.60;;;;;;5136119;27;20470;-77
2024/01/13 11:36:52;;;;;;;4.50;4.10;;;14.60;56.60;;;;;;5137064;27;20534;-79
2024/01/13 11:39:22;;;;;;;10.10;4.20;;;14.60;56.70;;;;;;5135339;27;20537;-75
2024/01/13 11:41:52;;;;;;;6.97;4.80;;;14.60;56.60;;;;;;5134290;27;20467;-79
2024/01/13 11:44:22;;;;;;;4.87;4.47;;;14.60;56.60;;;;;;5136621;27;20412;-77
2024/01/13 11:47:01;;;;;;;9.40;4.27;;;14.60;56.50;;;;;;5124797;27;20470;-77
2024/01/13 11:49:33;;;;;;;4.47;4.07;;;14.70;56.50;;;;;;5134035;27;20463;-75
2024/01/13 11:52:02;;;;;;;6.53;4.97;;;14.60;56.60;;;;;;5129746;27;21011;-76
2024/01/13 11:54:31;;;;;;;5.73;5.10;;;14.60;56.60;;;;;;5133348;27;20955;-78
2024/01/13 11:57:02;;;;;;;5.63;4.50;;;14.60;56.60;;;;;;5122197;27;20439;-78
2024/01/13 11:59:30;;;;;;;6.83;4.93;;;14.60;56.70;;;;;;5127569;27;20542;-79
2024/01/13 12:04:35;;;;;;;9.50;4.67;;;14.70;56.80;;;;;;4988686;28;20507;-78
2024/01/13 12:10:51;;;;;;;5.73;4.87;;;14.70;56.90;;;;;;4933145;28;20459;-78
2024/01/13 12:13:21;;;;;;;6.97;5.10;;;14.70;56.70;;;;;;5003590;28;20846;-78
2024/01/13 12:15:49;;;;;;;5.17;4.40;;;14.80;56.90;;;;;;5011541;28;20448;-79
2024/01/13 12:18:18;;;;;;;6.20;4.67;;;14.80;56.70;;;;;;5009353;28;20510;-78
2024/01/13 12:20:47;;;;;;;5.10;4.43;;;14.70;56.90;;;;;;5008569;28;20448;-77
2024/01/13 12:23:16;;;;;;;5.43;4.93;;;14.70;57.00;;;;;;5016764;28;20483;-77
2024/01/13 12:25:45;;;;;;;4.73;4.33;;;14.80;57.00;;;;;;5013864;28;20539;-77
2024/01/13 12:28:36;;;;;;;7.00;5.37;;;14.80;57.10;;;;;;5004490;28;20449;-80
2024/01/13 12:31:05;;;;;;;7.20;5.07;;;14.80;57.00;;;;;;5012436;28;20491;-78
2024/01/13 12:33:38;;;;;;;6.50;4.90;;;14.80;56.80;;;;;;5010751;28;20523;-79
2024/01/13 12:36:12;;;;;;;6.60;4.90;;;14.80;57.10;;;;;;5013175;28;20460;-79
2024/01/13 12:38:41;;;;;;;8.33;4.90;;;14.80;57.00;;;;;;5011879;28;20457;-77
2024/01/13 12:41:24;;;;;;;6.63;5.20;;;14.80;57.00;;;;;;5009164;28;20467;-78
2024/01/13 12:44:15;;;;;;;7.73;5.37;;;14.80;56.80;;;;;;5009194;28;20468;-78
2024/01/13 12:47:34;;;;;;;5.33;4.83;;;14.80;57.20;;;;;;5032785;28;20452;-82
2024/01/13 12:50:09;;;;;;;6.83;5.20;;;14.80;57.10;;;;;;5024776;28;20463;-85
2024/01/13 12:53:16;;;;;;;6.70;5.13;;;14.80;57.00;;;;;;5026629;28;20476;-82
2024/01/13 12:55:44;;;;;;;9.53;5.20;;;14.80;57.80;;;;;;5009039;28;20491;-79
2024/01/13 12:58:24;;;;;;;5.47;4.90;;;14.80;57.20;;;;;;5014592;28;20452;-78
2024/01/13 13:01:44;;;;;;;7.60;5.00;;;14.80;57.20;;;;;;5002160;28;20483;-78
2024/01/13 13:04:12;;;;;;;7.00;5.60;;;14.80;57.30;;;;;;5000910;28;21011;-78
2024/01/13 13:06:46;;;;;;;5.93;5.33;;;14.90;57.40;;;;;;5011095;28;20484;-79